ウダーチヌイ の空港の天気 - METARとTAF

Polyarny ( UERP / PYJ ) - ロシア ウダーチヌイ
飛行場実況気象(Metar)
観測時間03/27 03:00 YAKT (03/26 18:00 UTC)
風向・風速西 2m/s
視程10km以上
天気現象
なし
気温-11℃
湿度72%
気圧1016hPa
METARUERP 261800Z 27002MPS CAVOK M11/M15 Q1016 R35/850250 NOSIG RMK QFE718
過去の天気等 Google飛行場航空写真 Wunderground天気予報

過去48時間のMETAR

飛行場予報(TAF)
発表時間: 3/27 02:00 YAKT (3/26 17:00 UTC)
予報対象時間: 27日3時 YAKT ~ 28日3時 YAKT
風向・風速西北西 5m/s
視程10km以上
天気現象弱い雪
全天の8割程度の雲 雲底高度 460m
全天を覆う雲 雲底高度 3050m
27日3時 YAKT ~ 27日6時 YAKT に一時的に
視程4000m
天気現象弱い雪
全天の8割程度の雲 雲底高度 210m
全天を覆う雲 雲底高度 3050m
27日6時 YAKT ~ 27日11時 YAKT に一時的に
視程700m
天気現象雪 氷霧
全天を覆う雲 鉛直視程 60m
27日11時 YAKT ~ 27日13時 YAKT に徐々に
風向・風速北西 5m/s 瞬間風速 10m/s
27日21時 YAKT ~ 27日23時 YAKT に徐々に
風向・風速不定 1m/s
TAF UERP 261700Z 2618/2718 29005MPS 9999 -SN BKN015 OVC100
TEMPO 2618/2621 4000 -SN BKN007 OVC100
TEMPO 2621/2702 0700 SN FZFG VV002
BECMG 2702/2704 32005G10MPS
BECMG 2712/2714 VRB01MPS